KLUK

Cincinnati Municipal Lunken Field Airport

Cincinnati, Ohio, USA
KLUK 162345Z 1700/1724 03005KT P6SM OVC022 FM170600 00000KT 5SM -DZ BR SCT008 OVC012 FM170900 00000KT 2SM -DZ BR OVC008 FM171200 12004KT 5SM -RA OVC009 FM172000 18004KT 1SM -SNRA OVC004
Issued Valid From Valid To
Jan-16 @ 23:45 UTC
(5 hours ago)
Jan-17 @ 00:00 UTC
(5 hours ago)
Jan-18 @ 00:00 UTC
(in 19 hours)
Jan-17 @ 00:00 to Jan-17 @ 06:00
KLUK 162345Z 1700/1724 03005KT P6SM OVC022
Wind Visibility Clouds
30° at 5 knots Greater than 6 miles
  • Overcast at 2,200' AGL
From Jan-17 @ 06:00 to Jan-17 @ 09:00
FM170600 00000KT 5SM -DZ BR SCT008 OVC012
Visibility Clouds Conditions
5 miles
  • Scattered at 800' AGL
  • Overcast at 1,200' AGL
  • Light Drizzle
  • Mist
From Jan-17 @ 09:00 to Jan-17 @ 12:00
FM170900 00000KT 2SM -DZ BR OVC008
Visibility Clouds Conditions
2 miles
  • Overcast at 800' AGL
  • Light Drizzle
  • Mist
From Jan-17 @ 12:00 to Jan-17 @ 20:00
FM171200 12004KT 5SM -RA OVC009
Wind Visibility Clouds Conditions
120° at 4 knots 5 miles
  • Overcast at 900' AGL
  • Light Rain
From Jan-17 @ 20:00 to Jan-18 @ 00:00
FM172000 18004KT 1SM -SNRA OVC004
Wind Visibility Clouds Conditions
180° at 4 knots 1 miles
  • Overcast at 400' AGL
  • Light Snow
  • Light Rain
KLUK 162345Z 1700/1724 03005KT P6SM OVC022 FM170600 00000KT 5SM -DZ BR SCT008 OVC012 FM170900 00000KT 2SM -DZ BR OVC008 FM171200 12004KT 5SM -RA OVC009 FM172000 18004KT 1SM -SNRA OVC004
Issued Jan-16 @ 23:45 UTC
(5 hours ago)
Valid From Jan-17 @ 00:00 UTC
(5 hours ago)
Valid To Jan-18 @ 00:00 UTC
(in 19 hours)
Jan-17 @ 00:00 - Jan-17 @ 06:00
Wind Visibility
30° at 5 knots Greater than 6 miles
Clouds
  • Overcast at 2,200' AGL
From Jan-17 @ 06:00 - Jan-17 @ 09:00
Clouds
  • Scattered at 800' AGL
  • Overcast at 1,200' AGL
Conditions
  • Light Drizzle
  • Mist
From Jan-17 @ 09:00 - Jan-17 @ 12:00
Clouds
  • Overcast at 800' AGL
Conditions
  • Light Drizzle
  • Mist
From Jan-17 @ 12:00 - Jan-17 @ 20:00
Wind Visibility
120° at 4 knots 5 miles
Clouds
  • Overcast at 900' AGL
Conditions
  • Light Rain
From Jan-17 @ 20:00 - Jan-18 @ 00:00
Wind Visibility
180° at 4 knots 1 miles
Clouds
  • Overcast at 400' AGL
Conditions
  • Light Snow
  • Light Rain